createdAt,value
2022-10-11T00:00:01.120Z,23.2
2022-10-11T00:05:00.087Z,23.1
2022-10-11T00:10:01.005Z,23.2
2022-10-11T00:15:01.703Z,23.1
2022-10-11T00:20:00.988Z,23.1
2022-10-11T00:25:00.094Z,23.1
2022-10-11T00:30:00.140Z,23.1
2022-10-11T00:35:01.538Z,23.1
2022-10-11T00:40:00.144Z,23.1
2022-10-11T00:45:00.998Z,23.1
2022-10-11T00:50:01.034Z,23.1
2022-10-11T00:55:00.119Z,23.1
2022-10-11T01:00:00.175Z,23.1
2022-10-11T01:05:25.578Z,23.1
2022-10-11T01:10:01.665Z,23.1
2022-10-11T01:15:00.997Z,23.1
2022-10-11T01:20:01.049Z,23.0
2022-10-11T01:25:00.118Z,23.1
2022-10-11T01:30:01.376Z,23.0
2022-10-11T01:35:00.094Z,23.0
2022-10-11T01:40:01.021Z,23.0
2022-10-11T01:45:00.100Z,23.0
2022-10-11T01:50:00.985Z,23.0
2022-10-11T01:55:11.067Z,23.0
2022-10-11T02:00:01.322Z,23.0
2022-10-11T02:05:00.090Z,23.0
2022-10-11T02:10:01.705Z,23.0
2022-10-11T02:15:01.301Z,23.0
2022-10-11T02:20:02.362Z,23.0
2022-10-11T02:25:00.098Z,23.0
2022-10-11T02:30:01.501Z,22.9
2022-10-11T02:35:00.992Z,22.9
2022-10-11T02:40:01.224Z,23.0
2022-10-11T02:45:01.035Z,22.9
2022-10-11T02:50:01.218Z,22.9
2022-10-11T02:55:01.247Z,22.9
2022-10-11T03:00:01.052Z,22.9
2022-10-11T03:05:01.450Z,22.9
2022-10-11T03:10:00.975Z,22.9
2022-10-11T03:15:01.193Z,22.9
2022-10-11T03:20:01.028Z,22.9
2022-10-11T03:25:03.873Z,22.8
2022-10-11T03:30:00.975Z,22.8
2022-10-11T03:35:00.115Z,22.8
2022-10-11T03:40:01.474Z,22.8
2022-10-11T03:45:01.028Z,22.8
2022-10-11T03:50:00.983Z,22.8
2022-10-11T03:55:01.201Z,22.8
2022-10-11T04:00:02.222Z,22.8
2022-10-11T04:05:01.132Z,22.8
2022-10-11T04:10:00.999Z,22.8
2022-10-11T04:15:01.179Z,22.8
2022-10-11T04:20:00.977Z,22.8
2022-10-11T04:25:00.101Z,22.8
2022-10-11T04:30:00.127Z,22.8
2022-10-11T04:35:01.241Z,22.8
2022-10-11T04:40:00.983Z,22.8
2022-10-11T04:45:00.151Z,22.8
2022-10-11T04:50:01.073Z,22.7
2022-10-11T04:55:01.042Z,22.7
2022-10-11T05:00:00.147Z,22.7
2022-10-11T05:05:02.413Z,22.8
2022-10-11T05:10:00.961Z,22.8
2022-10-11T05:15:00.116Z,22.7
2022-10-11T05:20:02.110Z,22.8
2022-10-11T05:25:00.959Z,22.7
2022-10-11T05:30:00.956Z,22.7
2022-10-11T05:35:00.964Z,22.7
2022-10-11T05:40:01.034Z,22.7
2022-10-11T05:45:00.109Z,22.7
2022-10-11T05:50:00.142Z,22.7
2022-10-11T05:55:00.967Z,22.7
2022-10-11T06:00:01.342Z,22.7
2022-10-11T06:05:01.054Z,22.7
2022-10-11T06:10:01.017Z,22.7
2022-10-11T06:15:01.096Z,22.6
2022-10-11T06:20:01.019Z,22.6
2022-10-11T06:25:00.980Z,22.6
2022-10-11T06:30:01.283Z,22.7
2022-10-11T06:35:00.097Z,22.7
2022-10-11T06:40:01.258Z,22.6
2022-10-11T06:45:00.113Z,22.7
2022-10-11T06:50:01.285Z,22.6
2022-10-11T06:55:02.613Z,22.7
2022-10-11T07:00:01.083Z,22.7
2022-10-11T07:05:01.289Z,22.7
2022-10-11T07:10:01.251Z,22.7
2022-10-11T07:15:00.088Z,22.7
2022-10-11T07:20:00.160Z,22.6
2022-10-11T07:25:01.030Z,22.7
2022-10-11T07:30:01.209Z,22.7
2022-10-11T07:35:00.104Z,22.7
2022-10-11T07:40:02.848Z,22.6
2022-10-11T07:45:00.934Z,22.7
2022-10-11T07:50:01.988Z,22.6
2022-10-11T07:55:00.125Z,22.7
2022-10-11T08:00:00.175Z,22.6
2022-10-11T08:05:00.116Z,22.7
2022-10-11T08:10:01.277Z,22.7
2022-10-11T08:15:01.125Z,22.7
2022-10-11T08:20:02.833Z,22.7
2022-10-11T08:25:01.520Z,22.7
2022-10-11T08:30:01.179Z,22.7
2022-10-11T08:35:01.291Z,22.7
2022-10-11T08:40:01.050Z,22.7
2022-10-11T08:45:10.864Z,22.7
2022-10-11T08:50:01.001Z,22.7
2022-10-11T08:55:01.273Z,22.7
2022-10-11T09:00:01.123Z,22.7
2022-10-11T09:05:01.296Z,22.8
2022-10-11T09:10:01.012Z,22.8
2022-10-11T09:15:01.007Z,22.8
2022-10-11T09:20:00.978Z,22.8
2022-10-11T09:25:01.025Z,22.8
2022-10-11T09:30:00.119Z,22.8
2022-10-11T09:35:01.030Z,22.8
2022-10-11T09:40:01.402Z,22.8
2022-10-11T09:45:00.117Z,22.8
2022-10-11T09:50:01.027Z,22.8
2022-10-11T09:55:01.015Z,22.8
2022-10-11T10:00:01.550Z,22.8
2022-10-11T10:05:00.103Z,22.8
2022-10-11T10:10:01.048Z,22.8
2022-10-11T10:15:00.120Z,22.8
2022-10-11T10:20:01.363Z,22.8
2022-10-11T10:25:00.151Z,22.8
2022-10-11T10:30:00.143Z,22.8
2022-10-11T10:35:00.112Z,22.8
2022-10-11T10:40:01.312Z,22.8
2022-10-11T10:45:01.592Z,22.8
2022-10-11T10:50:01.026Z,22.9
2022-10-11T10:55:00.121Z,22.9
2022-10-11T11:00:01.086Z,22.9
2022-10-11T11:05:01.425Z,22.9
2022-10-11T11:10:01.242Z,22.9
2022-10-11T11:15:01.154Z,22.9
2022-10-11T11:20:01.022Z,22.9
2022-10-11T11:25:00.995Z,22.9
2022-10-11T11:30:01.521Z,22.9
2022-10-11T11:35:00.096Z,22.9
2022-10-11T11:40:01.213Z,22.9
2022-10-11T11:45:00.980Z,22.9
2022-10-11T11:50:00.157Z,22.9
2022-10-11T11:55:03.689Z,22.9
2022-10-11T12:00:01.360Z,22.9
2022-10-11T12:05:00.101Z,23.0
2022-10-11T12:10:00.120Z,23.0
2022-10-11T12:15:01.499Z,23.0
2022-10-11T12:20:01.084Z,23.0
2022-10-11T12:25:01.256Z,23.0
2022-10-11T12:30:00.998Z,23.0
2022-10-11T12:35:01.254Z,23.0
2022-10-11T12:45:01.297Z,22.9
2022-10-11T12:50:00.133Z,22.8
2022-10-11T12:55:00.116Z,22.7
2022-10-11T13:05:00.095Z,22.5
2022-10-11T13:10:01.029Z,22.5
2022-10-11T13:15:00.118Z,22.5
2022-10-11T13:20:01.251Z,22.4
2022-10-11T13:25:00.969Z,22.4
2022-10-11T13:30:01.242Z,22.3
2022-10-11T13:35:00.116Z,22.3
2022-10-11T13:40:01.322Z,22.2
2022-10-11T13:45:00.113Z,22.2
2022-10-11T13:50:01.041Z,22.1
2022-10-11T13:55:00.112Z,22.2
2022-10-11T14:00:01.571Z,22.2
2022-10-11T14:05:01.011Z,22.3
2022-10-11T14:10:01.011Z,22.3
2022-10-11T14:15:01.009Z,22.4
2022-10-11T14:20:06.153Z,22.5
2022-10-11T14:25:00.126Z,22.5
2022-10-11T14:30:23.795Z,22.5
2022-10-11T14:35:00.953Z,22.6
2022-10-11T14:40:01.223Z,22.6
2022-10-11T14:45:00.102Z,22.7
2022-10-11T14:50:00.976Z,22.8
2022-10-11T14:55:00.110Z,22.8
2022-10-11T15:00:01.059Z,22.8
2022-10-11T15:05:01.260Z,22.8
2022-10-11T15:10:01.255Z,22.9
2022-10-11T15:15:00.103Z,22.9
2022-10-11T15:20:01.157Z,23.0
2022-10-11T15:25:01.384Z,23.0
2022-10-11T15:30:02.190Z,23.0
2022-10-11T15:35:01.319Z,22.9
2022-10-11T15:40:00.955Z,22.9
2022-10-11T15:45:01.464Z,22.9
2022-10-11T15:50:01.387Z,22.8
2022-10-11T15:55:01.041Z,22.7
2022-10-11T16:00:01.876Z,22.7
2022-10-11T16:05:01.140Z,22.6
2022-10-11T16:10:01.422Z,22.6
2022-10-11T16:15:00.094Z,22.6
2022-10-11T16:20:01.998Z,22.6
2022-10-11T16:25:00.100Z,22.7
2022-10-11T16:30:01.049Z,22.7
2022-10-11T16:35:01.417Z,22.8
2022-10-11T16:40:02.110Z,22.8
2022-10-11T16:45:01.229Z,22.8
2022-10-11T16:50:01.309Z,22.8
2022-10-11T16:55:01.514Z,22.9
2022-10-11T17:00:01.559Z,22.9
2022-10-11T17:05:00.154Z,22.9
2022-10-11T17:10:01.515Z,22.9
2022-10-11T17:15:01.495Z,22.9
2022-10-11T17:20:00.161Z,23.0
2022-10-11T17:25:01.437Z,23.0
2022-10-11T17:30:00.140Z,23.0
2022-10-11T17:35:00.115Z,23.0
2022-10-11T17:40:00.984Z,23.0
2022-10-11T17:45:01.058Z,23.0
2022-10-11T17:50:01.656Z,23.0
2022-10-11T17:55:00.100Z,23.0
2022-10-11T18:00:01.007Z,23.0
2022-10-11T18:05:00.116Z,23.0
2022-10-11T18:10:01.482Z,23.0
2022-10-11T18:15:00.121Z,23.0
2022-10-11T18:20:01.278Z,23.0
2022-10-11T18:25:02.929Z,23.0
2022-10-11T18:30:00.960Z,23.0
2022-10-11T18:35:00.120Z,23.0
2022-10-11T18:40:01.268Z,23.0
2022-10-11T18:45:01.217Z,23.0
2022-10-11T18:50:01.924Z,23.0
2022-10-11T18:55:01.274Z,23.0
2022-10-11T19:00:04.043Z,23.0
2022-10-11T19:05:00.986Z,23.0
2022-10-11T19:10:03.044Z,23.0
2022-10-11T19:15:00.110Z,23.0
2022-10-11T19:20:03.222Z,23.0
2022-10-11T19:25:01.252Z,23.0
2022-10-11T19:30:01.487Z,23.0
2022-10-11T19:35:00.118Z,23.0
2022-10-11T19:40:01.065Z,23.0
2022-10-11T19:45:00.120Z,23.0
2022-10-11T19:50:01.306Z,23.0
2022-10-11T19:55:01.272Z,23.0
2022-10-11T20:00:01.390Z,23.0
2022-10-11T20:05:01.487Z,23.0
2022-10-11T20:10:01.348Z,23.0
2022-10-11T20:15:01.123Z,23.0
2022-10-11T20:20:02.585Z,23.0
2022-10-11T20:25:00.106Z,23.0
2022-10-11T20:30:01.343Z,23.0
2022-10-11T20:35:00.098Z,23.0
2022-10-11T20:40:01.212Z,23.0
2022-10-11T20:45:01.487Z,23.0
2022-10-11T20:50:00.135Z,23.0
2022-10-11T20:55:00.102Z,23.0
2022-10-11T21:00:01.346Z,23.0
2022-10-11T21:05:00.091Z,23.0
2022-10-11T21:10:03.898Z,23.0
2022-10-11T21:15:00.115Z,23.0
2022-10-11T21:20:02.239Z,23.0
2022-10-11T21:25:00.094Z,22.8
2022-10-11T21:30:01.075Z,22.8
2022-10-11T21:35:01.006Z,22.7
2022-10-11T21:40:01.040Z,22.7
2022-10-11T21:45:00.105Z,22.8
2022-10-11T21:50:01.058Z,22.7
2022-10-11T21:55:01.168Z,22.7
2022-10-11T22:00:01.068Z,22.8
2022-10-11T22:05:00.112Z,22.7
2022-10-11T22:10:01.045Z,22.8
2022-10-11T22:15:00.111Z,22.8
2022-10-11T22:20:01.211Z,22.8
2022-10-11T22:25:00.109Z,22.8
2022-10-11T22:30:02.072Z,22.9
2022-10-11T22:35:00.992Z,22.9
2022-10-11T22:40:01.259Z,22.8
2022-10-11T22:45:00.148Z,22.8
2022-10-11T22:50:00.125Z,22.9
2022-10-11T22:55:01.482Z,22.9
2022-10-11T23:00:01.131Z,22.9
2022-10-11T23:05:00.970Z,22.9
2022-10-11T23:10:00.127Z,22.9
2022-10-11T23:15:00.099Z,22.9
2022-10-11T23:20:00.162Z,22.9
2022-10-11T23:25:01.079Z,22.9
2022-10-11T23:30:01.249Z,22.9
2022-10-11T23:35:00.117Z,22.8
2022-10-11T23:40:01.532Z,22.5
2022-10-11T23:45:00.091Z,22.3
2022-10-11T23:50:01.079Z,22.0
2022-10-11T23:55:01.035Z,21.9
